Aérodrome :
LOGIN :

S'inscrire | Disclaimer

   EN    FR    IT 

 










Légende :    VFR   VFR Marginal   IFR   IFR Intensif   IFR Très Intensif
Visi : 
Plafond : 
>= 8 km
>= 3000ft
5 à 8 km
1000 à 3000 ft
1500m à 5 km
500 à 1000 ft
800 à 1500m
200 à 500 ft
< 800m
< 200 ft
Symboles :   Orages  Brouillard  Fortes neiges  Fortes précipitations  Vent > 20 kt
SIGMETs :   Divers  Orages  Givrage  Turbulence  Onde Orograph.  Cendres Volcan.






- Altitude de l'aérodrome : 1966 ft
- Code IATA : SGE


EDGS - Siegerland

DERNIER METAR :
  • 230920Z 23022G32KT 6000 FEW002 OVC003 07/07 Q1012

METARs EXPIRÉS :
  • 230850Z 23020G31KT 2500 -RADZ BR FEW001 OVC002 07/07 Q1012
  • 230820Z 23019G33KT 0600 R31/P2000D -RA FG VV/// 07/06 Q1013 RERA
  • 230750Z 22015KT 190V250 0800 R31/P2000D RA FG OVC001 06/06 Q1014

TAF TAF EDGS
Valide du 23 à 09h jusqu'au 23 à 18h UTC


230800Z 2309/2318 23015G25KT 0500 RA FG OVC001
BECMG 2309/2311 23020G40KT 3000 -RA SCT002 BKN005
BECMG 2311/2314 26025G45KT
TEMPO 2311/2316 26030G60KT 2000 RA BKN002
TEMPO 2316/2318 28030G55KT 1200 SHRA BKN002CB



MET'MAP, la Météo Aéronautique d'un coup d'oeil ! - Copyright ORBIFLY Décembre 2007 - Disclaimer

ORBIFLY MET'MAP TEAM :

Programmation & Développement : Alexandra Zaïnal
Sur une idée originale de : Baudouin d'Aumeries
Assistance à la programmation : Marc-Olivier Méhu
Soutien technique & logistique : Manuel Goepfert

Contact : metmap@orbifly.com




SOURCES & CREDITS :

   NOAA